sensor_id;sensor_type;location;lat;lon;timestamp;temperature;humidity
16485;DHT22;8353;47.856;12.344;2022-09-01T00:00:45;17.70;99.90
16485;DHT22;8353;47.856;12.344;2022-09-01T00:03:33;17.80;99.90
16485;DHT22;8353;47.856;12.344;2022-09-01T00:06:22;17.90;99.90
16485;DHT22;8353;47.856;12.344;2022-09-01T00:09:15;17.90;99.90
16485;DHT22;8353;47.856;12.344;2022-09-01T00:12:03;17.90;99.90
16485;DHT22;8353;47.856;12.344;2022-09-01T00:14:51;17.90;99.90
16485;DHT22;8353;47.856;12.344;2022-09-01T00:17:39;17.80;99.90
16485;DHT22;8353;47.856;12.344;2022-09-01T00:20:26;17.60;99.90
16485;DHT22;8353;47.856;12.344;2022-09-01T00:23:12;17.80;99.90
16485;DHT22;8353;47.856;12.344;2022-09-01T00:26:00;17.80;99.90
16485;DHT22;8353;47.856;12.344;2022-09-01T00:28:47;17.90;99.90
16485;DHT22;8353;47.856;12.344;2022-09-01T00:31:35;18.00;99.90
16485;DHT22;8353;47.856;12.344;2022-09-01T00:34:22;18.20;99.90
16485;DHT22;8353;47.856;12.344;2022-09-01T00:37:09;18.20;99.90
16485;DHT22;8353;47.856;12.344;2022-09-01T00:39:56;18.10;99.90
16485;DHT22;8353;47.856;12.344;2022-09-01T00:42:45;18.10;99.90
16485;DHT22;8353;47.856;12.344;2022-09-01T00:45:33;18.30;99.90
16485;DHT22;8353;47.856;12.344;2022-09-01T00:48:20;18.50;99.90
16485;DHT22;8353;47.856;12.344;2022-09-01T00:51:09;18.50;99.90
16485;DHT22;8353;47.856;12.344;2022-09-01T00:53:58;18.60;99.90
16485;DHT22;8353;47.856;12.344;2022-09-01T00:56:46;18.70;99.90
16485;DHT22;8353;47.856;12.344;2022-09-01T00:59:36;18.60;99.90
16485;DHT22;8353;47.856;12.344;2022-09-01T01:02:24;18.50;99.90
16485;DHT22;8353;47.856;12.344;2022-09-01T01:05:12;18.40;99.90
16485;DHT22;8353;47.856;12.344;2022-09-01T01:07:59;18.30;99.90
16485;DHT22;8353;47.856;12.344;2022-09-01T01:10:47;18.30;99.90
16485;DHT22;8353;47.856;12.344;2022-09-01T01:13:47;18.40;99.90
16485;DHT22;8353;47.856;12.344;2022-09-01T01:16:39;18.40;99.90
16485;DHT22;8353;47.856;12.344;2022-09-01T01:19:37;18.40;99.90
16485;DHT22;8353;47.856;12.344;2022-09-01T01:22:54;18.30;99.90
16485;DHT22;8353;47.856;12.344;2022-09-01T01:25:54;18.20;99.90
16485;DHT22;8353;47.856;12.344;2022-09-01T01:28:42;18.40;99.90
16485;DHT22;8353;47.856;12.344;2022-09-01T01:31:29;18.50;99.90
16485;DHT22;8353;47.856;12.344;2022-09-01T01:34:17;18.50;99.90
16485;DHT22;8353;47.856;12.344;2022-09-01T01:37:04;18.50;99.90
16485;DHT22;8353;47.856;12.344;2022-09-01T01:39:51;18.60;99.90
16485;DHT22;8353;47.856;12.344;2022-09-01T01:42:40;18.60;99.90
16485;DHT22;8353;47.856;12.344;2022-09-01T01:45:29;18.60;99.90
16485;DHT22;8353;47.856;12.344;2022-09-01T01:48:16;18.70;99.90
16485;DHT22;8353;47.856;12.344;2022-09-01T01:51:09;18.70;99.90
16485;DHT22;8353;47.856;12.344;2022-09-01T01:53:57;18.50;99.90
16485;DHT22;8353;47.856;12.344;2022-09-01T01:56:44;18.40;99.90
16485;DHT22;8353;47.856;12.344;2022-09-01T01:59:33;18.30;99.90
16485;DHT22;8353;47.856;12.344;2022-09-01T02:02:23;18.20;99.90
16485;DHT22;8353;47.856;12.344;2022-09-01T02:05:14;18.10;99.90
16485;DHT22;8353;47.856;12.344;2022-09-01T02:08:07;18.10;99.90
16485;DHT22;8353;47.856;12.344;2022-09-01T02:10:55;18.00;99.90
16485;DHT22;8353;47.856;12.344;2022-09-01T02:13:45;17.60;99.90
16485;DHT22;8353;47.856;12.344;2022-09-01T02:16:36;17.70;99.90
16485;DHT22;8353;47.856;12.344;2022-09-01T02:19:23;17.60;99.90
16485;DHT22;8353;47.856;12.344;2022-09-01T02:22:11;17.60;99.90
16485;DHT22;8353;47.856;12.344;2022-09-01T02:24:59;17.60;99.90
16485;DHT22;8353;47.856;12.344;2022-09-01T02:27:47;17.50;99.90
16485;DHT22;8353;47.856;12.344;2022-09-01T02:30:40;17.60;99.90
16485;DHT22;8353;47.856;12.344;2022-09-01T02:33:30;17.60;99.90
16485;DHT22;8353;47.856;12.344;2022-09-01T02:36:18;17.40;99.90
16485;DHT22;8353;47.856;12.344;2022-09-01T02:39:05;17.30;99.90
16485;DHT22;8353;47.856;12.344;2022-09-01T02:41:53;17.30;99.90
16485;DHT22;8353;47.856;12.344;2022-09-01T02:44:45;17.30;99.90
16485;DHT22;8353;47.856;12.344;2022-09-01T02:47:33;17.20;99.90
16485;DHT22;8353;47.856;12.344;2022-09-01T02:50:22;17.20;99.90
16485;DHT22;8353;47.856;12.344;2022-09-01T02:53:11;17.30;99.90
16485;DHT22;8353;47.856;12.344;2022-09-01T02:56:00;17.30;99.90
16485;DHT22;8353;47.856;12.344;2022-09-01T02:58:49;17.20;99.90
16485;DHT22;8353;47.856;12.344;2022-09-01T03:01:37;17.10;99.90
16485;DHT22;8353;47.856;12.344;2022-09-01T03:04:26;16.90;99.90
16485;DHT22;8353;47.856;12.344;2022-09-01T03:07:15;17.00;99.90
16485;DHT22;8353;47.856;12.344;2022-09-01T03:10:03;17.20;99.90
16485;DHT22;8353;47.856;12.344;2022-09-01T03:12:56;17.00;99.90
16485;DHT22;8353;47.856;12.344;2022-09-01T03:15:44;16.80;99.90
16485;DHT22;8353;47.856;12.344;2022-09-01T03:18:33;16.70;99.90
16485;DHT22;8353;47.856;12.344;2022-09-01T03:21:20;16.70;99.90
16485;DHT22;8353;47.856;12.344;2022-09-01T03:24:12;16.90;99.90
16485;DHT22;8353;47.856;12.344;2022-09-01T03:27:02;16.90;99.90
16485;DHT22;8353;47.856;12.344;2022-09-01T03:29:50;17.10;99.90
16485;DHT22;8353;47.856;12.344;2022-09-01T03:32:37;17.10;99.90
16485;DHT22;8353;47.856;12.344;2022-09-01T03:35:28;17.10;99.90
16485;DHT22;8353;47.856;12.344;2022-09-01T03:38:17;17.10;99.90
16485;DHT22;8353;47.856;12.344;2022-09-01T03:41:10;17.10;99.90
16485;DHT22;8353;47.856;12.344;2022-09-01T03:43:58;17.20;99.90
16485;DHT22;8353;47.856;12.344;2022-09-01T03:46:46;17.20;99.90
16485;DHT22;8353;47.856;12.344;2022-09-01T03:49:34;17.30;99.90
16485;DHT22;8353;47.856;12.344;2022-09-01T03:52:22;17.20;99.90
16485;DHT22;8353;47.856;12.344;2022-09-01T03:55:15;17.00;99.90
16485;DHT22;8353;47.856;12.344;2022-09-01T03:58:09;17.00;99.90
16485;DHT22;8353;47.856;12.344;2022-09-01T04:01:00;17.10;99.90
16485;DHT22;8353;47.856;12.344;2022-09-01T04:03:47;17.30;99.90
16485;DHT22;8353;47.856;12.344;2022-09-01T04:06:36;17.30;99.90
16485;DHT22;8353;47.856;12.344;2022-09-01T04:09:23;17.40;99.90
16485;DHT22;8353;47.856;12.344;2022-09-01T04:12:14;17.40;99.90
16485;DHT22;8353;47.856;12.344;2022-09-01T04:15:04;17.50;99.90
16485;DHT22;8353;47.856;12.344;2022-09-01T04:17:55;17.70;99.90
16485;DHT22;8353;47.856;12.344;2022-09-01T04:20:56;17.70;99.90
16485;DHT22;8353;47.856;12.344;2022-09-01T04:23:44;17.90;99.90
16485;DHT22;8353;47.856;12.344;2022-09-01T04:26:33;17.90;99.90
16485;DHT22;8353;47.856;12.344;2022-09-01T04:29:24;17.80;99.90
16485;DHT22;8353;47.856;12.344;2022-09-01T04:32:14;17.70;99.90
16485;DHT22;8353;47.856;12.344;2022-09-01T04:35:07;17.70;99.90
16485;DHT22;8353;47.856;12.344;2022-09-01T04:37:56;17.70;99.90
16485;DHT22;8353;47.856;12.344;2022-09-01T04:40:44;17.50;99.90
16485;DHT22;8353;47.856;12.344;2022-09-01T04:43:32;17.60;99.90
16485;DHT22;8353;47.856;12.344;2022-09-01T04:46:21;17.50;99.90
16485;DHT22;8353;47.856;12.344;2022-09-01T04:49:10;17.30;99.90
16485;DHT22;8353;47.856;12.344;2022-09-01T04:52:01;17.30;99.90
16485;DHT22;8353;47.856;12.344;2022-09-01T04:54:49;17.30;99.90
16485;DHT22;8353;47.856;12.344;2022-09-01T04:57:36;17.20;99.90
16485;DHT22;8353;47.856;12.344;2022-09-01T05:00:30;17.00;99.90
16485;DHT22;8353;47.856;12.344;2022-09-01T05:03:18;16.80;99.90
16485;DHT22;8353;47.856;12.344;2022-09-01T05:06:14;16.90;99.90
16485;DHT22;8353;47.856;12.344;2022-09-01T05:09:02;16.90;99.90
16485;DHT22;8353;47.856;12.344;2022-09-01T05:11:50;16.70;99.90
16485;DHT22;8353;47.856;12.344;2022-09-01T05:14:38;16.60;99.90
16485;DHT22;8353;47.856;12.344;2022-09-01T05:17:27;16.60;99.90
16485;DHT22;8353;47.856;12.344;2022-09-01T05:20:14;16.70;99.90
16485;DHT22;8353;47.856;12.344;2022-09-01T05:23:07;16.70;99.90
16485;DHT22;8353;47.856;12.344;2022-09-01T05:25:57;16.50;99.90
16485;DHT22;8353;47.856;12.344;2022-09-01T05:28:47;16.60;99.90
16485;DHT22;8353;47.856;12.344;2022-09-01T05:31:35;16.60;99.90
16485;DHT22;8353;47.856;12.344;2022-09-01T05:34:24;16.60;99.90
16485;DHT22;8353;47.856;12.344;2022-09-01T05:37:13;16.80;99.90
16485;DHT22;8353;47.856;12.344;2022-09-01T05:40:09;16.80;99.90
16485;DHT22;8353;47.856;12.344;2022-09-01T05:43:00;16.80;99.90
16485;DHT22;8353;47.856;12.344;2022-09-01T05:45:47;16.80;99.90
16485;DHT22;8353;47.856;12.344;2022-09-01T05:48:38;17.00;99.90
16485;DHT22;8353;47.856;12.344;2022-09-01T05:51:27;17.00;99.90
16485;DHT22;8353;47.856;12.344;2022-09-01T05:54:20;17.00;99.90
16485;DHT22;8353;47.856;12.344;2022-09-01T05:57:12;17.00;99.90
16485;DHT22;8353;47.856;12.344;2022-09-01T06:00:07;17.30;99.90
16485;DHT22;8353;47.856;12.344;2022-09-01T06:03:06;17.20;99.90
16485;DHT22;8353;47.856;12.344;2022-09-01T06:05:54;17.30;99.90
16485;DHT22;8353;47.856;12.344;2022-09-01T06:08:48;17.50;99.90
16485;DHT22;8353;47.856;12.344;2022-09-01T06:11:36;17.70;99.90
16485;DHT22;8353;47.856;12.344;2022-09-01T06:14:27;17.70;99.90
16485;DHT22;8353;47.856;12.344;2022-09-01T06:17:17;17.60;99.90
16485;DHT22;8353;47.856;12.344;2022-09-01T06:20:08;17.70;99.90
16485;DHT22;8353;47.856;12.344;2022-09-01T06:22:56;17.80;99.90
16485;DHT22;8353;47.856;12.344;2022-09-01T06:25:45;17.90;99.90
16485;DHT22;8353;47.856;12.344;2022-09-01T06:28:40;18.00;99.90
16485;DHT22;8353;47.856;12.344;2022-09-01T06:31:31;18.00;99.90
16485;DHT22;8353;47.856;12.344;2022-09-01T06:34:24;18.00;99.90
16485;DHT22;8353;47.856;12.344;2022-09-01T06:37:12;18.10;99.90
16485;DHT22;8353;47.856;12.344;2022-09-01T06:40:04;18.10;99.90
16485;DHT22;8353;47.856;12.344;2022-09-01T06:43:00;18.30;99.90
16485;DHT22;8353;47.856;12.344;2022-09-01T06:45:52;18.30;99.90
16485;DHT22;8353;47.856;12.344;2022-09-01T06:48:42;18.40;99.90
16485;DHT22;8353;47.856;12.344;2022-09-01T06:51:38;18.20;99.90
16485;DHT22;8353;47.856;12.344;2022-09-01T06:54:27;18.40;99.90
16485;DHT22;8353;47.856;12.344;2022-09-01T06:57:15;18.40;99.90
16485;DHT22;8353;47.856;12.344;2022-09-01T07:00:05;18.50;99.90
16485;DHT22;8353;47.856;12.344;2022-09-01T07:03:02;18.70;99.90
16485;DHT22;8353;47.856;12.344;2022-09-01T07:05:57;18.70;99.90
16485;DHT22;8353;47.856;12.344;2022-09-01T07:08:44;18.90;99.90
16485;DHT22;8353;47.856;12.344;2022-09-01T07:11:34;18.90;99.90
16485;DHT22;8353;47.856;12.344;2022-09-01T07:14:28;19.00;99.90
16485;DHT22;8353;47.856;12.344;2022-09-01T07:17:19;18.80;99.90
16485;DHT22;8353;47.856;12.344;2022-09-01T07:20:08;18.90;99.90
16485;DHT22;8353;47.856;12.344;2022-09-01T07:22:58;19.20;99.90
16485;DHT22;8353;47.856;12.344;2022-09-01T07:25:50;19.30;99.90
16485;DHT22;8353;47.856;12.344;2022-09-01T07:28:41;19.10;99.90
16485;DHT22;8353;47.856;12.344;2022-09-01T07:31:42;19.20;99.90
16485;DHT22;8353;47.856;12.344;2022-09-01T07:34:34;19.20;99.90
16485;DHT22;8353;47.856;12.344;2022-09-01T07:37:28;19.40;99.90
16485;DHT22;8353;47.856;12.344;2022-09-01T07:40:19;19.80;99.90
16485;DHT22;8353;47.856;12.344;2022-09-01T07:43:14;20.00;99.90
16485;DHT22;8353;47.856;12.344;2022-09-01T07:46:10;20.20;99.90
16485;DHT22;8353;47.856;12.344;2022-09-01T07:49:00;20.20;99.90
16485;DHT22;8353;47.856;12.344;2022-09-01T07:51:54;20.30;99.90
16485;DHT22;8353;47.856;12.344;2022-09-01T07:54:49;20.20;99.90
16485;DHT22;8353;47.856;12.344;2022-09-01T07:57:43;20.20;99.90
16485;DHT22;8353;47.856;12.344;2022-09-01T08:00:35;20.10;99.90
16485;DHT22;8353;47.856;12.344;2022-09-01T08:03:24;20.50;99.90
16485;DHT22;8353;47.856;12.344;2022-09-01T08:06:15;20.50;99.90
16485;DHT22;8353;47.856;12.344;2022-09-01T08:09:06;20.60;99.90
16485;DHT22;8353;47.856;12.344;2022-09-01T08:11:56;20.60;99.90
16485;DHT22;8353;47.856;12.344;2022-09-01T08:14:46;20.50;99.90
16485;DHT22;8353;47.856;12.344;2022-09-01T08:17:42;20.00;99.90
16485;DHT22;8353;47.856;12.344;2022-09-01T08:20:33;19.90;99.90
16485;DHT22;8353;47.856;12.344;2022-09-01T08:23:25;19.60;99.90
16485;DHT22;8353;47.856;12.344;2022-09-01T08:26:16;19.90;99.90
16485;DHT22;8353;47.856;12.344;2022-09-01T08:29:06;20.40;99.90
16485;DHT22;8353;47.856;12.344;2022-09-01T08:31:58;20.50;99.90
16485;DHT22;8353;47.856;12.344;2022-09-01T08:34:49;20.10;99.90
16485;DHT22;8353;47.856;12.344;2022-09-01T08:37:38;19.80;99.90
16485;DHT22;8353;47.856;12.344;2022-09-01T08:40:26;19.80;99.90
16485;DHT22;8353;47.856;12.344;2022-09-01T08:43:20;20.10;99.90
16485;DHT22;8353;47.856;12.344;2022-09-01T08:46:18;20.30;99.90
16485;DHT22;8353;47.856;12.344;2022-09-01T08:49:14;20.10;99.90
16485;DHT22;8353;47.856;12.344;2022-09-01T08:52:10;20.40;99.90
16485;DHT22;8353;47.856;12.344;2022-09-01T08:55:10;20.70;99.90
16485;DHT22;8353;47.856;12.344;2022-09-01T08:58:03;21.00;99.90
16485;DHT22;8353;47.856;12.344;2022-09-01T09:00:55;20.70;99.90
16485;DHT22;8353;47.856;12.344;2022-09-01T09:03:50;20.90;99.90
16485;DHT22;8353;47.856;12.344;2022-09-01T09:06:52;20.80;99.90
16485;DHT22;8353;47.856;12.344;2022-09-01T09:09:47;20.60;99.90
16485;DHT22;8353;47.856;12.344;2022-09-01T09:12:53;20.30;99.90
16485;DHT22;8353;47.856;12.344;2022-09-01T09:15:54;20.40;99.90
16485;DHT22;8353;47.856;12.344;2022-09-01T09:18:48;20.10;99.90
16485;DHT22;8353;47.856;12.344;2022-09-01T09:21:50;20.40;99.90
16485;DHT22;8353;47.856;12.344;2022-09-01T09:24:45;20.70;99.90
16485;DHT22;8353;47.856;12.344;2022-09-01T09:27:37;20.80;99.90
16485;DHT22;8353;47.856;12.344;2022-09-01T09:30:30;21.10;99.90
16485;DHT22;8353;47.856;12.344;2022-09-01T09:33:34;21.20;99.90
16485;DHT22;8353;47.856;12.344;2022-09-01T09:36:36;21.00;99.90
16485;DHT22;8353;47.856;12.344;2022-09-01T09:39:26;21.10;99.90
16485;DHT22;8353;47.856;12.344;2022-09-01T09:42:14;20.70;99.90
16485;DHT22;8353;47.856;12.344;2022-09-01T09:45:03;20.50;99.90
16485;DHT22;8353;47.856;12.344;2022-09-01T09:47:53;20.70;99.90
16485;DHT22;8353;47.856;12.344;2022-09-01T09:50:47;20.70;99.90
16485;DHT22;8353;47.856;12.344;2022-09-01T09:53:34;20.60;99.90
16485;DHT22;8353;47.856;12.344;2022-09-01T09:56:24;21.00;99.90
16485;DHT22;8353;47.856;12.344;2022-09-01T09:59:30;21.10;99.90
16485;DHT22;8353;47.856;12.344;2022-09-01T10:02:26;20.90;99.90
16485;DHT22;8353;47.856;12.344;2022-09-01T10:05:41;21.10;99.90
16485;DHT22;8353;47.856;12.344;2022-09-01T10:08:38;21.50;99.90
16485;DHT22;8353;47.856;12.344;2022-09-01T10:11:36;21.70;99.90
16485;DHT22;8353;47.856;12.344;2022-09-01T10:14:28;21.70;99.90
16485;DHT22;8353;47.856;12.344;2022-09-01T10:17:20;22.00;99.90
16485;DHT22;8353;47.856;12.344;2022-09-01T10:20:18;22.00;99.90
16485;DHT22;8353;47.856;12.344;2022-09-01T10:23:09;21.70;99.90
16485;DHT22;8353;47.856;12.344;2022-09-01T10:26:08;21.90;99.90
16485;DHT22;8353;47.856;12.344;2022-09-01T10:29:07;21.80;99.90
16485;DHT22;8353;47.856;12.344;2022-09-01T10:31:56;21.90;99.90
16485;DHT22;8353;47.856;12.344;2022-09-01T10:34:46;21.90;99.90
16485;DHT22;8353;47.856;12.344;2022-09-01T10:37:40;21.80;99.90
16485;DHT22;8353;47.856;12.344;2022-09-01T10:40:41;21.70;99.90
16485;DHT22;8353;47.856;12.344;2022-09-01T10:43:37;21.80;99.90
16485;DHT22;8353;47.856;12.344;2022-09-01T10:46:46;22.10;99.90
16485;DHT22;8353;47.856;12.344;2022-09-01T10:49:56;22.50;99.90
16485;DHT22;8353;47.856;12.344;2022-09-01T10:53:07;22.90;99.90
16485;DHT22;8353;47.856;12.344;2022-09-01T10:56:01;22.70;99.90
16485;DHT22;8353;47.856;12.344;2022-09-01T10:59:07;22.50;99.90
16485;DHT22;8353;47.856;12.344;2022-09-01T11:02:16;22.90;99.90
16485;DHT22;8353;47.856;12.344;2022-09-01T11:05:15;22.50;99.90
16485;DHT22;8353;47.856;12.344;2022-09-01T11:08:23;22.90;99.90
16485;DHT22;8353;47.856;12.344;2022-09-01T11:11:30;23.20;99.90
16485;DHT22;8353;47.856;12.344;2022-09-01T11:14:27;23.20;99.90
16485;DHT22;8353;47.856;12.344;2022-09-01T11:17:29;23.20;99.90
16485;DHT22;8353;47.856;12.344;2022-09-01T11:20:37;23.00;99.90
16485;DHT22;8353;47.856;12.344;2022-09-01T11:23:27;23.00;99.90
16485;DHT22;8353;47.856;12.344;2022-09-01T11:26:44;23.30;99.90
16485;DHT22;8353;47.856;12.344;2022-09-01T11:30:07;23.90;99.90
16485;DHT22;8353;47.856;12.344;2022-09-01T11:33:12;23.70;99.90
16485;DHT22;8353;47.856;12.344;2022-09-01T11:36:15;24.00;99.90
16485;DHT22;8353;47.856;12.344;2022-09-01T11:39:21;24.00;99.90
16485;DHT22;8353;47.856;12.344;2022-09-01T11:42:18;23.90;99.90
16485;DHT22;8353;47.856;12.344;2022-09-01T11:45:14;23.80;99.90
16485;DHT22;8353;47.856;12.344;2022-09-01T11:48:08;24.00;99.90
16485;DHT22;8353;47.856;12.344;2022-09-01T11:50:59;24.20;99.90
16485;DHT22;8353;47.856;12.344;2022-09-01T11:53:54;24.00;99.90
16485;DHT22;8353;47.856;12.344;2022-09-01T11:56:49;23.80;99.90
16485;DHT22;8353;47.856;12.344;2022-09-01T11:59:38;24.00;99.90
16485;DHT22;8353;47.856;12.344;2022-09-01T12:02:31;23.90;99.90
16485;DHT22;8353;47.856;12.344;2022-09-01T12:05:35;24.70;99.90
16485;DHT22;8353;47.856;12.344;2022-09-01T12:08:27;25.00;99.90
16485;DHT22;8353;47.856;12.344;2022-09-01T12:11:19;25.10;99.90
16485;DHT22;8353;47.856;12.344;2022-09-01T12:14:10;25.30;99.90
16485;DHT22;8353;47.856;12.344;2022-09-01T12:17:07;25.00;99.90
16485;DHT22;8353;47.856;12.344;2022-09-01T12:20:22;25.10;99.90
16485;DHT22;8353;47.856;12.344;2022-09-01T12:23:22;24.80;99.90
16485;DHT22;8353;47.856;12.344;2022-09-01T12:26:13;24.60;99.90
16485;DHT22;8353;47.856;12.344;2022-09-01T12:29:04;25.00;99.90
16485;DHT22;8353;47.856;12.344;2022-09-01T12:31:53;24.90;99.90
16485;DHT22;8353;47.856;12.344;2022-09-01T12:34:45;25.20;99.90
16485;DHT22;8353;47.856;12.344;2022-09-01T12:37:36;24.70;99.90
16485;DHT22;8353;47.856;12.344;2022-09-01T12:40:38;24.40;99.90
16485;DHT22;8353;47.856;12.344;2022-09-01T12:43:29;24.10;99.90
16485;DHT22;8353;47.856;12.344;2022-09-01T12:46:38;23.90;99.90
16485;DHT22;8353;47.856;12.344;2022-09-01T12:49:36;24.00;99.90
16485;DHT22;8353;47.856;12.344;2022-09-01T12:52:28;24.10;99.90
16485;DHT22;8353;47.856;12.344;2022-09-01T12:55:20;24.40;99.90
16485;DHT22;8353;47.856;12.344;2022-09-01T12:58:20;25.10;99.90
16485;DHT22;8353;47.856;12.344;2022-09-01T13:01:24;25.60;99.90
16485;DHT22;8353;47.856;12.344;2022-09-01T13:04:24;25.60;99.90
16485;DHT22;8353;47.856;12.344;2022-09-01T13:07:14;25.50;99.90
16485;DHT22;8353;47.856;12.344;2022-09-01T13:10:08;25.70;99.90
16485;DHT22;8353;47.856;12.344;2022-09-01T13:12:58;25.50;99.90
16485;DHT22;8353;47.856;12.344;2022-09-01T13:15:50;25.50;99.90
16485;DHT22;8353;47.856;12.344;2022-09-01T13:18:45;26.00;99.90
16485;DHT22;8353;47.856;12.344;2022-09-01T13:21:34;26.00;99.90
16485;DHT22;8353;47.856;12.344;2022-09-01T13:24:26;26.00;99.90
16485;DHT22;8353;47.856;12.344;2022-09-01T13:27:16;26.20;99.90
16485;DHT22;8353;47.856;12.344;2022-09-01T13:30:07;26.00;99.90
16485;DHT22;8353;47.856;12.344;2022-09-01T13:32:57;26.10;99.90
16485;DHT22;8353;47.856;12.344;2022-09-01T13:35:45;26.00;99.90
16485;DHT22;8353;47.856;12.344;2022-09-01T13:38:37;26.30;99.90
16485;DHT22;8353;47.856;12.344;2022-09-01T13:41:36;25.70;99.90
16485;DHT22;8353;47.856;12.344;2022-09-01T13:44:28;25.80;99.90
16485;DHT22;8353;47.856;12.344;2022-09-01T13:47:16;25.80;99.90
16485;DHT22;8353;47.856;12.344;2022-09-01T13:50:07;25.70;99.90
16485;DHT22;8353;47.856;12.344;2022-09-01T13:53:01;25.60;99.90
16485;DHT22;8353;47.856;12.344;2022-09-01T13:55:53;25.50;99.90
16485;DHT22;8353;47.856;12.344;2022-09-01T13:58:43;25.60;99.90
16485;DHT22;8353;47.856;12.344;2022-09-01T14:01:41;25.60;99.90
16485;DHT22;8353;47.856;12.344;2022-09-01T14:04:33;25.60;99.90
16485;DHT22;8353;47.856;12.344;2022-09-01T14:07:26;25.70;99.90
16485;DHT22;8353;47.856;12.344;2022-09-01T14:10:22;25.60;99.90
16485;DHT22;8353;47.856;12.344;2022-09-01T14:13:11;25.50;99.90
16485;DHT22;8353;47.856;12.344;2022-09-01T14:16:09;25.30;99.90
16485;DHT22;8353;47.856;12.344;2022-09-01T14:18:59;25.80;99.90
16485;DHT22;8353;47.856;12.344;2022-09-01T14:21:47;25.80;99.90
16485;DHT22;8353;47.856;12.344;2022-09-01T14:24:38;25.60;99.90
16485;DHT22;8353;47.856;12.344;2022-09-01T14:27:26;25.60;99.90
16485;DHT22;8353;47.856;12.344;2022-09-01T14:30:20;25.60;99.90
16485;DHT22;8353;47.856;12.344;2022-09-01T14:33:09;25.50;99.90
16485;DHT22;8353;47.856;12.344;2022-09-01T14:36:00;25.50;99.90
16485;DHT22;8353;47.856;12.344;2022-09-01T14:38:49;25.70;99.90
16485;DHT22;8353;47.856;12.344;2022-09-01T14:41:38;25.70;99.90
16485;DHT22;8353;47.856;12.344;2022-09-01T14:44:25;26.20;99.90
16485;DHT22;8353;47.856;12.344;2022-09-01T14:47:15;26.60;99.90
16485;DHT22;8353;47.856;12.344;2022-09-01T14:50:03;26.40;99.90
16485;DHT22;8353;47.856;12.344;2022-09-01T14:53:02;26.10;99.90
16485;DHT22;8353;47.856;12.344;2022-09-01T14:55:50;26.20;99.90
16485;DHT22;8353;47.856;12.344;2022-09-01T14:58:39;26.20;99.90
16485;DHT22;8353;47.856;12.344;2022-09-01T15:01:27;26.20;99.90
16485;DHT22;8353;47.856;12.344;2022-09-01T15:04:15;26.00;99.90
16485;DHT22;8353;47.856;12.344;2022-09-01T15:07:08;26.00;99.90
16485;DHT22;8353;47.856;12.344;2022-09-01T15:09:56;25.90;99.90
16485;DHT22;8353;47.856;12.344;2022-09-01T15:12:44;26.20;99.90
16485;DHT22;8353;47.856;12.344;2022-09-01T15:15:38;26.20;99.90
16485;DHT22;8353;47.856;12.344;2022-09-01T15:18:35;26.40;99.90
16485;DHT22;8353;47.856;12.344;2022-09-01T15:21:28;26.20;99.90
16485;DHT22;8353;47.856;12.344;2022-09-01T15:24:17;26.10;99.90
16485;DHT22;8353;47.856;12.344;2022-09-01T15:27:04;25.50;99.90
16485;DHT22;8353;47.856;12.344;2022-09-01T15:29:52;25.20;99.90
16485;DHT22;8353;47.856;12.344;2022-09-01T15:32:46;25.20;99.90
16485;DHT22;8353;47.856;12.344;2022-09-01T15:35:36;25.60;99.90
16485;DHT22;8353;47.856;12.344;2022-09-01T15:38:23;25.80;99.90
16485;DHT22;8353;47.856;12.344;2022-09-01T15:41:23;25.90;99.90
16485;DHT22;8353;47.856;12.344;2022-09-01T15:44:11;26.00;99.90
16485;DHT22;8353;47.856;12.344;2022-09-01T15:46:58;25.90;99.90
16485;DHT22;8353;47.856;12.344;2022-09-01T15:49:47;25.80;99.90
16485;DHT22;8353;47.856;12.344;2022-09-01T15:52:47;25.80;99.90
16485;DHT22;8353;47.856;12.344;2022-09-01T15:55:39;25.60;99.90
16485;DHT22;8353;47.856;12.344;2022-09-01T15:58:28;25.40;99.90
16485;DHT22;8353;47.856;12.344;2022-09-01T16:01:17;25.40;99.90
16485;DHT22;8353;47.856;12.344;2022-09-01T16:04:09;25.60;99.90
16485;DHT22;8353;47.856;12.344;2022-09-01T16:06:59;25.90;99.90
16485;DHT22;8353;47.856;12.344;2022-09-01T16:09:46;25.90;99.90
16485;DHT22;8353;47.856;12.344;2022-09-01T16:12:35;25.90;99.90
16485;DHT22;8353;47.856;12.344;2022-09-01T16:15:23;25.60;99.90
16485;DHT22;8353;47.856;12.344;2022-09-01T16:18:23;25.40;99.90
16485;DHT22;8353;47.856;12.344;2022-09-01T16:21:20;25.30;99.90
16485;DHT22;8353;47.856;12.344;2022-09-01T16:24:12;25.00;99.90
16485;DHT22;8353;47.856;12.344;2022-09-01T16:27:00;24.90;99.90
16485;DHT22;8353;47.856;12.344;2022-09-01T16:29:51;24.80;99.90
16485;DHT22;8353;47.856;12.344;2022-09-01T16:32:42;24.30;99.90
16485;DHT22;8353;47.856;12.344;2022-09-01T16:35:45;24.10;99.90
16485;DHT22;8353;47.856;12.344;2022-09-01T16:38:42;24.20;99.90
16485;DHT22;8353;47.856;12.344;2022-09-01T16:41:40;24.20;99.90
16485;DHT22;8353;47.856;12.344;2022-09-01T16:44:41;24.20;99.90
16485;DHT22;8353;47.856;12.344;2022-09-01T16:47:47;24.30;99.90
16485;DHT22;8353;47.856;12.344;2022-09-01T16:50:43;24.30;99.90
16485;DHT22;8353;47.856;12.344;2022-09-01T16:53:47;24.30;99.90
16485;DHT22;8353;47.856;12.344;2022-09-01T16:56:44;24.30;99.90
16485;DHT22;8353;47.856;12.344;2022-09-01T16:59:42;24.40;99.90
16485;DHT22;8353;47.856;12.344;2022-09-01T17:02:37;24.40;99.90
16485;DHT22;8353;47.856;12.344;2022-09-01T17:05:32;23.90;99.90
16485;DHT22;8353;47.856;12.344;2022-09-01T17:08:29;23.30;99.90
16485;DHT22;8353;47.856;12.344;2022-09-01T17:11:23;23.00;99.90
16485;DHT22;8353;47.856;12.344;2022-09-01T17:14:18;22.80;99.90
16485;DHT22;8353;47.856;12.344;2022-09-01T17:17:14;23.00;99.90
16485;DHT22;8353;47.856;12.344;2022-09-01T17:20:05;22.80;99.90
16485;DHT22;8353;47.856;12.344;2022-09-01T17:22:56;22.60;99.90
16485;DHT22;8353;47.856;12.344;2022-09-01T17:25:51;22.40;99.90
16485;DHT22;8353;47.856;12.344;2022-09-01T17:28:44;22.40;99.90
16485;DHT22;8353;47.856;12.344;2022-09-01T17:31:49;22.40;99.90
16485;DHT22;8353;47.856;12.344;2022-09-01T17:34:42;22.40;99.90
16485;DHT22;8353;47.856;12.344;2022-09-01T17:37:46;22.20;99.90
16485;DHT22;8353;47.856;12.344;2022-09-01T17:40:54;21.90;99.90
16485;DHT22;8353;47.856;12.344;2022-09-01T17:43:55;21.90;99.90
16485;DHT22;8353;47.856;12.344;2022-09-01T17:46:52;21.60;99.90
16485;DHT22;8353;47.856;12.344;2022-09-01T17:49:51;21.50;99.90
16485;DHT22;8353;47.856;12.344;2022-09-01T17:52:52;21.60;99.90
16485;DHT22;8353;47.856;12.344;2022-09-01T17:55:49;21.50;99.90
16485;DHT22;8353;47.856;12.344;2022-09-01T17:58:45;21.10;99.90
16485;DHT22;8353;47.856;12.344;2022-09-01T18:01:42;20.90;99.90
16485;DHT22;8353;47.856;12.344;2022-09-01T18:04:51;21.20;99.90
16485;DHT22;8353;47.856;12.344;2022-09-01T18:08:01;21.20;99.90
16485;DHT22;8353;47.856;12.344;2022-09-01T18:10:55;21.20;99.90